createdAt,value
2022-10-09T00:01:30.095Z,86.01
2022-10-09T00:04:00.051Z,85.96
2022-10-09T00:06:30.847Z,85.50
2022-10-09T00:09:01.930Z,86.16
2022-10-09T00:11:32.130Z,86.26
2022-10-09T00:14:00.432Z,86.37
2022-10-09T00:16:30.067Z,85.89
2022-10-09T00:18:58.763Z,85.81
2022-10-09T00:21:29.278Z,85.68
2022-10-09T00:24:00.233Z,85.89
2022-10-09T00:26:30.518Z,85.30
2022-10-09T00:28:59.319Z,85.25
2022-10-09T00:31:27.853Z,85.65
2022-10-09T00:33:56.458Z,85.64
2022-10-09T00:36:26.893Z,85.99
2022-10-09T00:38:55.889Z,85.94
2022-10-09T00:41:27.091Z,85.84
2022-10-09T00:43:58.681Z,85.63
2022-10-09T00:46:34.347Z,85.26
2022-10-09T00:49:10.444Z,85.74
2022-10-09T00:51:39.532Z,85.92
2022-10-09T00:54:12.898Z,86.07
2022-10-09T00:56:41.553Z,85.68
2022-10-09T00:59:12.129Z,85.61
2022-10-09T01:01:41.675Z,85.79
2022-10-09T01:04:12.565Z,86.08
2022-10-09T01:06:59.484Z,86.67
2022-10-09T01:09:39.267Z,86.28
2022-10-09T01:12:17.330Z,85.89
2022-10-09T01:14:56.555Z,85.56
2022-10-09T01:17:31.862Z,85.59
2022-10-09T01:20:32.582Z,84.80
2022-10-09T01:23:23.773Z,85.38
2022-10-09T01:26:04.365Z,84.44
2022-10-09T01:28:36.736Z,84.26
2022-10-09T01:31:07.409Z,83.78
2022-10-09T01:33:36.498Z,84.60
2022-10-09T01:36:07.360Z,85.27
2022-10-09T01:38:37.601Z,84.57
2022-10-09T01:41:08.154Z,84.41
2022-10-09T01:43:37.956Z,85.24
2022-10-09T01:46:20.681Z,85.23
2022-10-09T01:48:56.427Z,84.71
2022-10-09T01:51:31.049Z,84.58
2022-10-09T01:54:06.449Z,84.72
2022-10-09T01:56:38.812Z,84.93
2022-10-09T01:59:16.043Z,84.50
2022-10-09T02:01:47.006Z,84.85
2022-10-09T02:04:17.924Z,83.22
2022-10-09T02:06:47.764Z,84.60
2022-10-09T02:09:18.992Z,84.89
2022-10-09T02:11:53.567Z,84.30
2022-10-09T02:14:25.417Z,85.61
2022-10-09T02:17:02.619Z,85.66
2022-10-09T02:19:35.881Z,86.16
2022-10-09T02:22:09.136Z,85.71
2022-10-09T02:24:38.917Z,84.45
2022-10-09T02:27:08.793Z,85.18
2022-10-09T02:29:39.716Z,84.89
2022-10-09T02:32:08.587Z,84.31
2022-10-09T02:34:37.174Z,84.47
2022-10-09T02:37:06.118Z,86.26
2022-10-09T02:39:34.781Z,86.14
2022-10-09T02:42:03.412Z,85.14
2022-10-09T02:44:31.828Z,85.16
2022-10-09T02:47:01.566Z,85.87
2022-10-09T02:49:30.008Z,84.83
2022-10-09T02:51:58.361Z,84.90
2022-10-09T02:54:26.745Z,85.32
2022-10-09T02:56:55.116Z,84.96
2022-10-09T02:59:23.512Z,85.03
2022-10-09T03:01:52.155Z,85.09
2022-10-09T03:04:22.071Z,84.72
2022-10-09T03:06:50.481Z,86.44
2022-10-09T03:09:18.855Z,85.86
2022-10-09T03:11:47.247Z,84.98
2022-10-09T03:14:15.733Z,86.33
2022-10-09T03:16:44.179Z,85.24
2022-10-09T03:19:12.602Z,85.20
2022-10-09T03:21:42.352Z,84.78
2022-10-09T03:24:11.038Z,86.05
2022-10-09T03:26:39.479Z,85.04
2022-10-09T03:29:07.846Z,85.73
2022-10-09T03:31:53.101Z,85.63
2022-10-09T03:34:22.055Z,86.26
2022-10-09T03:36:51.812Z,85.23
2022-10-09T03:39:20.188Z,85.01
2022-10-09T03:41:48.588Z,85.67
2022-10-09T03:44:16.957Z,84.91
2022-10-09T03:46:46.578Z,85.26
2022-10-09T03:49:15.278Z,84.73
2022-10-09T03:51:43.665Z,84.33
2022-10-09T03:54:13.397Z,84.98
2022-10-09T03:56:41.779Z,84.27
2022-10-09T03:59:11.223Z,84.28
2022-10-09T04:01:39.647Z,84.64
2022-10-09T04:04:08.033Z,84.96
2022-10-09T04:06:36.484Z,85.23
2022-10-09T04:09:04.998Z,85.06
2022-10-09T04:11:35.134Z,84.82
2022-10-09T04:14:03.511Z,85.22
2022-10-09T04:16:31.931Z,84.52
2022-10-09T04:19:00.359Z,85.43
2022-10-09T04:21:28.821Z,84.98
2022-10-09T04:23:57.209Z,85.99
2022-10-09T04:26:25.566Z,85.26
2022-10-09T04:28:55.319Z,86.21
2022-10-09T04:31:23.734Z,85.21
2022-10-09T04:33:52.157Z,85.59
2022-10-09T04:36:20.549Z,86.36
2022-10-09T04:38:48.922Z,85.27
2022-10-09T04:41:17.332Z,85.52
2022-10-09T04:43:45.738Z,85.27
2022-10-09T04:46:16.269Z,86.03
2022-10-09T04:48:46.497Z,86.30
2022-10-09T04:51:15.353Z,86.10
2022-10-09T04:53:44.000Z,86.16
2022-10-09T04:56:18.167Z,86.23
2022-10-09T04:58:48.133Z,86.59
2022-10-09T05:01:20.247Z,86.15
2022-10-09T05:03:49.186Z,85.49
2022-10-09T05:06:19.281Z,85.46
2022-10-09T05:08:47.842Z,85.96
2022-10-09T05:11:18.765Z,86.25
2022-10-09T05:13:49.381Z,85.98
2022-10-09T05:16:21.607Z,86.78
2022-10-09T05:18:52.969Z,87.29
2022-10-09T05:21:22.385Z,86.27
2022-10-09T05:23:51.027Z,86.51
2022-10-09T05:26:22.166Z,86.28
2022-10-09T05:28:51.245Z,85.70
2022-10-09T05:31:22.858Z,86.93
2022-10-09T05:33:51.853Z,85.76
2022-10-09T05:36:21.076Z,85.55
2022-10-09T05:38:49.942Z,86.29
2022-10-09T05:41:19.998Z,86.10
2022-10-09T05:43:50.231Z,84.96
2022-10-09T05:46:19.463Z,86.10
2022-10-09T05:48:55.205Z,85.07
2022-10-09T05:51:25.494Z,86.50
2022-10-09T05:53:54.453Z,87.28
2022-10-09T05:56:25.074Z,86.24
2022-10-09T05:58:55.230Z,86.21
2022-10-09T06:01:24.455Z,86.79
2022-10-09T06:03:55.675Z,87.40
2022-10-09T06:06:25.950Z,86.95
2022-10-09T06:08:54.804Z,87.19
2022-10-09T06:11:28.176Z,86.65
2022-10-09T06:13:57.234Z,87.56
2022-10-09T06:16:27.411Z,86.66
2022-10-09T06:18:57.581Z,86.69
2022-10-09T06:21:28.204Z,86.76
2022-10-09T06:24:00.014Z,87.55
2022-10-09T06:26:30.175Z,87.40
2022-10-09T06:28:58.799Z,87.64
2022-10-09T06:31:29.178Z,86.94
2022-10-09T06:34:00.442Z,86.83
2022-10-09T06:36:30.436Z,86.94
2022-10-09T06:39:00.203Z,88.16
2022-10-09T06:41:29.905Z,86.75
2022-10-09T06:44:00.160Z,87.37
2022-10-09T06:46:32.131Z,89.02
2022-10-09T06:49:03.094Z,89.35
2022-10-09T06:51:32.421Z,88.55
2022-10-09T06:54:02.770Z,88.93
2022-10-09T06:56:33.137Z,88.28
2022-10-09T06:59:02.556Z,88.51
2022-10-09T07:01:32.838Z,89.52
2022-10-09T07:04:04.273Z,90.79
2022-10-09T07:06:34.568Z,89.71
2022-10-09T07:09:05.870Z,89.37
2022-10-09T07:11:35.980Z,88.38
2022-10-09T07:14:05.615Z,87.22
2022-10-09T07:16:36.326Z,85.95
2022-10-09T07:19:07.432Z,84.66
2022-10-09T07:21:36.854Z,82.89
2022-10-09T07:24:06.459Z,81.08
2022-10-09T07:26:38.258Z,79.67
2022-10-09T07:29:08.100Z,78.60
2022-10-09T07:31:36.673Z,77.07
2022-10-09T07:34:07.025Z,75.99
2022-10-09T07:36:35.525Z,75.68
2022-10-09T07:39:05.316Z,73.53
2022-10-09T07:41:33.800Z,73.38
2022-10-09T07:44:02.561Z,73.08
2022-10-09T07:46:33.680Z,72.36
2022-10-09T07:49:03.149Z,72.40
2022-10-09T07:51:33.718Z,71.90
2022-10-09T07:54:02.765Z,70.03
2022-10-09T07:56:32.756Z,69.70
2022-10-09T07:59:03.678Z,68.11
2022-10-09T08:01:34.079Z,68.65
2022-10-09T08:04:03.413Z,67.47
2022-10-09T08:06:34.059Z,68.15
2022-10-09T08:09:05.043Z,66.94
2022-10-09T08:11:34.476Z,66.24
2022-10-09T08:14:03.078Z,67.22
2022-10-09T08:16:33.117Z,65.09
2022-10-09T08:19:02.645Z,65.57
2022-10-09T08:21:32.869Z,62.91
2022-10-09T08:24:02.782Z,63.45
2022-10-09T08:26:31.820Z,63.82
2022-10-09T08:29:01.730Z,63.61
2022-10-09T08:31:31.739Z,62.30
2022-10-09T08:34:02.781Z,61.62
2022-10-09T08:36:32.034Z,60.60
2022-10-09T08:39:02.182Z,59.81
2022-10-09T08:41:42.479Z,59.62
2022-10-09T08:44:16.278Z,59.00
2022-10-09T08:47:01.479Z,57.91
2022-10-09T08:49:37.777Z,57.84
2022-10-09T08:52:18.588Z,57.57
2022-10-09T08:54:48.743Z,56.42
2022-10-09T08:57:18.657Z,56.69
2022-10-09T08:59:47.090Z,56.91
2022-10-09T09:02:44.501Z,55.11
2022-10-09T09:05:29.285Z,55.19
2022-10-09T09:08:08.077Z,54.29
2022-10-09T09:10:43.554Z,53.66
2022-10-09T09:13:36.141Z,54.33
2022-10-09T09:16:13.142Z,52.15
2022-10-09T09:18:53.082Z,52.12
2022-10-09T09:21:33.786Z,50.78
2022-10-09T09:24:06.282Z,50.67
2022-10-09T09:26:39.863Z,50.36
2022-10-09T09:29:08.433Z,48.81
2022-10-09T09:31:39.016Z,48.42
2022-10-09T09:34:13.901Z,47.10
2022-10-09T09:36:48.194Z,46.23
2022-10-09T09:42:15.215Z,46.05
2022-10-09T09:44:50.640Z,45.75
2022-10-09T09:47:25.042Z,45.92
2022-10-09T09:49:54.673Z,45.13
2022-10-09T09:52:23.335Z,45.15
2022-10-09T09:54:52.046Z,46.11
2022-10-09T09:57:30.600Z,45.59
2022-10-09T10:00:09.101Z,44.42
2022-10-09T10:02:38.502Z,44.56
2022-10-09T10:05:17.820Z,42.96
2022-10-09T10:07:49.912Z,42.45
2022-10-09T10:10:25.373Z,42.30
2022-10-09T10:12:58.354Z,42.85
2022-10-09T10:15:28.554Z,43.73
2022-10-09T10:18:01.726Z,43.75
2022-10-09T10:20:32.184Z,42.85
2022-10-09T10:23:01.629Z,42.61
2022-10-09T10:25:33.814Z,41.89
2022-10-09T10:28:09.415Z,41.20
2022-10-09T10:30:39.121Z,41.57
2022-10-09T10:33:17.889Z,39.62
2022-10-09T10:35:50.265Z,41.57
2022-10-09T10:38:23.829Z,39.46
2022-10-09T10:40:58.029Z,39.05
2022-10-09T10:43:37.079Z,39.95
2022-10-09T10:46:18.379Z,39.82
2022-10-09T10:48:50.019Z,38.52
2022-10-09T10:51:39.974Z,38.87
2022-10-09T10:54:27.772Z,39.59
2022-10-09T10:57:03.073Z,42.38
2022-10-09T10:59:40.453Z,40.30
2022-10-09T11:02:40.942Z,38.94
2022-10-09T11:05:23.983Z,39.29
2022-10-09T11:08:04.500Z,39.35
2022-10-09T11:10:38.011Z,38.70
2022-10-09T11:13:16.107Z,40.98
2022-10-09T11:15:57.721Z,39.90
2022-10-09T11:18:37.622Z,39.86
2022-10-09T11:21:21.446Z,39.82
2022-10-09T11:24:05.323Z,39.61
2022-10-09T11:26:42.983Z,38.48
2022-10-09T11:29:17.942Z,37.77
2022-10-09T11:31:51.540Z,40.18
2022-10-09T11:34:23.717Z,38.12
2022-10-09T11:36:52.161Z,37.47
2022-10-09T11:39:23.530Z,38.07
2022-10-09T11:41:54.357Z,37.88
2022-10-09T11:44:36.684Z,37.67
2022-10-09T11:47:16.271Z,38.40
2022-10-09T11:49:59.407Z,39.50
2022-10-09T11:52:39.128Z,38.39
2022-10-09T11:55:19.584Z,39.28
2022-10-09T11:57:48.907Z,38.14
2022-10-09T12:00:28.980Z,38.42
2022-10-09T12:03:02.165Z,39.13
2022-10-09T12:05:39.970Z,39.28
2022-10-09T12:08:15.391Z,39.72
2022-10-09T12:10:53.844Z,41.33
2022-10-09T12:13:40.958Z,41.06
2022-10-09T12:16:29.177Z,41.71
2022-10-09T12:19:00.817Z,41.72
2022-10-09T12:21:33.643Z,40.77
2022-10-09T12:24:02.507Z,41.26
2022-10-09T12:26:31.841Z,40.41
2022-10-09T12:29:04.796Z,41.45
2022-10-09T12:31:37.278Z,40.64
2022-10-09T12:34:18.688Z,41.36
2022-10-09T12:36:47.427Z,41.37
2022-10-09T12:39:20.128Z,41.30
2022-10-09T12:41:53.138Z,40.59
2022-10-09T12:44:29.533Z,40.76
2022-10-09T12:47:02.654Z,42.17
2022-10-09T12:49:32.673Z,41.84
2022-10-09T12:52:02.029Z,41.75
2022-10-09T12:54:32.281Z,42.31
2022-10-09T12:57:01.765Z,42.70
2022-10-09T12:59:30.748Z,42.51
2022-10-09T13:02:00.917Z,43.33
2022-10-09T13:04:33.189Z,43.65
2022-10-09T13:07:07.744Z,44.09
2022-10-09T13:09:38.737Z,45.19
2022-10-09T13:12:10.837Z,45.65
2022-10-09T13:14:43.961Z,44.31
2022-10-09T13:17:24.946Z,44.89
2022-10-09T13:19:56.861Z,43.70
2022-10-09T13:22:26.839Z,43.70
2022-10-09T13:24:57.498Z,44.97
2022-10-09T13:27:28.254Z,45.54
2022-10-09T13:29:57.450Z,45.43
2022-10-09T13:32:26.387Z,44.91
2022-10-09T13:34:57.964Z,45.61
2022-10-09T13:37:27.895Z,46.22
2022-10-09T13:39:58.170Z,45.73
2022-10-09T13:42:29.401Z,45.81
2022-10-09T13:44:58.091Z,46.36
2022-10-09T13:47:26.544Z,46.59
2022-10-09T13:49:57.523Z,46.45
2022-10-09T13:52:26.223Z,47.25
2022-10-09T13:54:54.677Z,46.62
2022-10-09T13:57:23.093Z,47.93
2022-10-09T13:59:51.583Z,48.18
2022-10-09T14:02:20.301Z,48.04
2022-10-09T14:04:48.763Z,48.22
2022-10-09T14:07:19.080Z,48.71
2022-10-09T14:09:47.681Z,49.11
2022-10-09T14:12:16.109Z,49.04
2022-10-09T14:14:44.546Z,49.33
2022-10-09T14:17:13.022Z,49.60
2022-10-09T14:19:41.517Z,50.22
2022-10-09T14:22:09.971Z,50.41
2022-10-09T14:24:39.795Z,50.37
2022-10-09T14:27:08.370Z,50.97
2022-10-09T14:29:38.103Z,50.73
2022-10-09T14:32:06.824Z,52.21
2022-10-09T14:34:35.345Z,52.65
2022-10-09T14:37:13.579Z,53.68
2022-10-09T14:39:48.928Z,53.04
2022-10-09T14:42:17.453Z,52.86
2022-10-09T14:44:45.888Z,54.47
2022-10-09T14:47:14.349Z,53.58
2022-10-09T14:49:42.787Z,53.21
2022-10-09T14:52:11.408Z,53.73
2022-10-09T14:54:39.989Z,54.03
2022-10-09T14:57:09.890Z,53.83
2022-10-09T14:59:38.362Z,54.86
2022-10-09T15:02:07.573Z,54.24
2022-10-09T15:04:36.231Z,55.10
2022-10-09T15:07:04.682Z,55.94
2022-10-09T15:09:33.130Z,56.08
2022-10-09T15:12:01.589Z,56.63
2022-10-09T15:14:31.392Z,56.24
2022-10-09T15:17:00.090Z,57.65
2022-10-09T15:19:28.715Z,56.63
2022-10-09T15:21:57.393Z,56.59
2022-10-09T15:24:25.907Z,57.53
2022-10-09T15:26:54.402Z,56.92
2022-10-09T15:29:23.275Z,57.94
2022-10-09T15:31:53.160Z,58.29
2022-10-09T15:34:21.734Z,57.46
2022-10-09T15:36:51.035Z,58.30
2022-10-09T15:39:19.741Z,58.50
2022-10-09T15:41:48.238Z,59.09
2022-10-09T15:44:18.717Z,58.47
2022-10-09T15:46:49.035Z,59.92
2022-10-09T15:49:19.054Z,59.94
2022-10-09T15:51:47.533Z,58.84
2022-10-09T15:54:15.948Z,59.88
2022-10-09T15:56:44.413Z,60.49
2022-10-09T15:59:14.230Z,60.49
2022-10-09T16:01:42.698Z,59.96
2022-10-09T16:04:11.257Z,59.98
2022-10-09T16:06:41.169Z,60.54
2022-10-09T16:09:09.777Z,60.94
2022-10-09T16:11:38.318Z,60.61
2022-10-09T16:14:06.763Z,61.09
2022-10-09T16:16:35.381Z,60.79
2022-10-09T16:19:05.054Z,61.36
2022-10-09T16:21:33.472Z,61.97
2022-10-09T16:24:03.292Z,62.13
2022-10-09T16:26:31.886Z,62.26
2022-10-09T16:29:01.378Z,62.60
2022-10-09T16:31:31.766Z,62.50
2022-10-09T16:34:00.226Z,63.01
2022-10-09T16:36:29.707Z,62.67
2022-10-09T16:38:58.937Z,63.35
2022-10-09T16:41:28.845Z,63.96
2022-10-09T16:44:00.108Z,64.60
2022-10-09T16:46:31.508Z,64.28
2022-10-09T16:49:02.598Z,64.77
2022-10-09T16:51:33.253Z,64.91
2022-10-09T16:54:03.563Z,65.47
2022-10-09T16:56:37.789Z,65.39
2022-10-09T16:59:09.451Z,66.13
2022-10-09T17:01:42.308Z,65.92
2022-10-09T17:04:11.009Z,65.77
2022-10-09T17:06:41.201Z,66.56
2022-10-09T17:09:14.009Z,66.88
2022-10-09T17:11:45.146Z,67.03
2022-10-09T17:14:14.262Z,66.53
2022-10-09T17:16:43.723Z,67.43
2022-10-09T17:19:12.265Z,67.79
2022-10-09T17:21:41.426Z,67.24
2022-10-09T17:24:10.046Z,67.75
2022-10-09T17:26:39.801Z,67.79
2022-10-09T17:29:09.916Z,69.06
2022-10-09T17:31:38.378Z,68.56
2022-10-09T17:34:07.381Z,67.78
2022-10-09T17:36:38.071Z,68.79
2022-10-09T17:39:08.718Z,68.81
2022-10-09T17:41:37.298Z,69.56
2022-10-09T17:44:05.998Z,69.35
2022-10-09T17:46:35.797Z,69.53
2022-10-09T17:49:04.058Z,69.83
2022-10-09T17:51:34.813Z,69.49
2022-10-09T17:54:08.194Z,70.04
2022-10-09T17:56:39.844Z,70.95
2022-10-09T17:59:08.666Z,70.49
2022-10-09T18:01:38.734Z,70.18
2022-10-09T18:04:07.432Z,71.01
2022-10-09T18:06:36.181Z,71.78
2022-10-09T18:09:05.844Z,71.63
2022-10-09T18:11:34.292Z,71.20
2022-10-09T18:14:03.790Z,72.23
2022-10-09T18:16:37.734Z,72.19
2022-10-09T18:19:11.320Z,72.47
2022-10-09T18:21:41.661Z,71.64
2022-10-09T18:24:10.811Z,71.97
2022-10-09T18:26:39.673Z,72.83
2022-10-09T18:29:08.176Z,72.95
2022-10-09T18:31:37.696Z,73.14
2022-10-09T18:34:07.698Z,73.41
2022-10-09T18:36:36.310Z,72.87
2022-10-09T18:39:07.460Z,72.92
2022-10-09T18:41:37.721Z,73.11
2022-10-09T18:44:09.620Z,73.15
2022-10-09T18:46:42.254Z,72.85
2022-10-09T18:49:16.734Z,72.71
2022-10-09T18:51:46.587Z,72.44
2022-10-09T18:54:18.286Z,73.14
2022-10-09T18:56:47.502Z,72.91
2022-10-09T18:59:19.287Z,72.97
2022-10-09T19:01:47.929Z,72.73
2022-10-09T19:04:18.927Z,73.32
2022-10-09T19:06:47.472Z,73.39
2022-10-09T19:09:17.017Z,73.55
2022-10-09T19:11:45.591Z,74.07
2022-10-09T19:14:15.708Z,73.18
2022-10-09T19:16:44.114Z,73.75
2022-10-09T19:19:12.609Z,73.86
2022-10-09T19:21:43.943Z,73.84
2022-10-09T19:24:13.619Z,74.32
2022-10-09T19:26:42.337Z,73.62
2022-10-09T19:29:10.917Z,73.85
2022-10-09T19:31:39.469Z,73.68
2022-10-09T19:34:08.496Z,74.47
2022-10-09T19:36:37.577Z,74.54
2022-10-09T19:39:09.075Z,74.56
2022-10-09T19:41:38.928Z,74.50
2022-10-09T19:44:07.169Z,74.37
2022-10-09T19:46:37.923Z,74.75
2022-10-09T19:49:08.360Z,74.62
2022-10-09T19:51:37.502Z,74.12
2022-10-09T19:54:09.498Z,73.79
2022-10-09T19:56:39.131Z,73.67
2022-10-09T19:59:09.158Z,73.86
2022-10-09T20:01:39.924Z,73.46
2022-10-09T20:04:11.458Z,74.00
2022-10-09T20:06:43.611Z,73.57
2022-10-09T20:09:20.676Z,73.95
2022-10-09T20:11:49.551Z,73.46
2022-10-09T20:14:18.081Z,73.50
2022-10-09T20:16:46.550Z,73.49
2022-10-09T20:19:14.942Z,73.42
2022-10-09T20:21:43.329Z,73.21
2022-10-09T20:24:11.769Z,73.22
2022-10-09T20:26:43.282Z,73.18
2022-10-09T20:29:12.037Z,73.69
2022-10-09T20:31:40.773Z,73.38
2022-10-09T20:34:09.356Z,73.90
2022-10-09T20:36:39.054Z,73.73
2022-10-09T20:39:08.911Z,74.49
2022-10-09T20:41:38.444Z,74.85
2022-10-09T20:44:08.721Z,74.36
2022-10-09T20:46:38.982Z,74.35
2022-10-09T20:49:09.572Z,74.45
2022-10-09T20:51:38.420Z,74.33
2022-10-09T20:54:08.714Z,74.34
2022-10-09T20:56:37.627Z,74.03
2022-10-09T20:59:06.057Z,74.75
2022-10-09T21:01:36.853Z,74.35
2022-10-09T21:04:05.785Z,74.78
2022-10-09T21:06:36.014Z,74.53
2022-10-09T21:09:05.238Z,74.40
2022-10-09T21:11:34.791Z,74.58
2022-10-09T21:14:04.228Z,74.67
2022-10-09T21:16:32.687Z,75.20
2022-10-09T21:19:04.928Z,74.75
2022-10-09T21:21:34.045Z,75.08
2022-10-09T21:24:03.229Z,74.89
2022-10-09T21:26:35.442Z,74.49
2022-10-09T21:29:05.165Z,75.72
2022-10-09T21:31:34.728Z,75.16
2022-10-09T21:34:04.791Z,75.59
2022-10-09T21:36:56.256Z,76.66
2022-10-09T21:39:30.266Z,75.96
2022-10-09T21:41:59.217Z,77.50
2022-10-09T21:44:27.750Z,76.91
2022-10-09T21:46:56.244Z,77.60
2022-10-09T21:49:28.264Z,78.01
2022-10-09T21:51:57.203Z,78.24
2022-10-09T21:54:25.605Z,78.56
2022-10-09T21:56:54.013Z,77.84
2022-10-09T21:59:22.412Z,78.49
2022-10-09T22:01:50.868Z,77.96
2022-10-09T22:04:19.313Z,78.01
2022-10-09T22:06:49.102Z,78.85
2022-10-09T22:09:17.531Z,79.17
2022-10-09T22:11:45.978Z,78.68
2022-10-09T22:14:15.012Z,78.55
2022-10-09T22:16:43.470Z,78.29
2022-10-09T22:19:11.951Z,79.05
2022-10-09T22:21:40.396Z,78.48
2022-10-09T22:24:10.240Z,79.54
2022-10-09T22:26:38.692Z,77.54
2022-10-09T22:29:07.437Z,78.86
2022-10-09T22:31:35.834Z,79.07
2022-10-09T22:34:04.284Z,78.67
2022-10-09T22:36:34.561Z,79.79
2022-10-09T22:39:06.665Z,79.24
2022-10-09T22:41:36.832Z,80.02
2022-10-09T22:44:06.764Z,79.45
2022-10-09T22:46:36.349Z,81.26
2022-10-09T22:49:05.749Z,81.07
2022-10-09T22:51:34.356Z,81.51
2022-10-09T22:54:02.951Z,81.75
2022-10-09T22:56:32.820Z,82.26
2022-10-09T22:59:03.138Z,82.82
2022-10-09T23:01:35.604Z,82.71
2022-10-09T23:04:06.038Z,82.32
2022-10-09T23:06:35.119Z,82.37
2022-10-09T23:09:06.154Z,82.42
2022-10-09T23:11:35.116Z,82.27
2022-10-09T23:14:05.867Z,82.48
2022-10-09T23:16:34.613Z,82.34
2022-10-09T23:19:06.729Z,83.63
2022-10-09T23:21:37.346Z,82.58
2022-10-09T23:24:06.743Z,82.44
2022-10-09T23:26:36.857Z,81.94
2022-10-09T23:29:15.119Z,82.10
2022-10-09T23:31:43.769Z,83.19
2022-10-09T23:34:12.276Z,81.53
2022-10-09T23:36:41.113Z,82.29
2022-10-09T23:39:09.964Z,82.15
2022-10-09T23:41:39.054Z,83.31
2022-10-09T23:44:08.898Z,82.56
2022-10-09T23:46:38.296Z,81.94
2022-10-09T23:49:06.892Z,81.98
2022-10-09T23:51:35.293Z,82.44
2022-10-09T23:54:03.743Z,82.36
2022-10-09T23:56:33.943Z,82.89
2022-10-09T23:59:05.989Z,82.07
